Time;durP1;ratioP1;P1;durP2;ratioP2;P2;SDS_P1;SDS_P2;PMS_P1;PMS_P2;Temp;Humidity;BMP_temperature;BMP_pressure;BME280_temperature;BME280_humidity;BME280_pressure;Samples;Min_cycle;Max_cycle;Signal;HPM_P1;HPM_P2
2023/01/24 00:03:26;;;;;;;2.70;2.00;;;;;;;;;;10363489;28;20293;-83
2023/01/24 00:08:30;;;;;;;2.47;2.05;;;;;;;;;;10364599;28;20109;-83
2023/01/24 00:13:35;;;;;;;3.80;2.47;;;;;;;;;;10364510;28;20054;-83
2023/01/24 00:18:39;;;;;;;2.30;1.88;;;;;;;;;;10370327;28;20560;-84
2023/01/24 00:23:45;;;;;;;2.47;1.92;;;;;;;;;;10403333;28;20045;-84
2023/01/24 00:28:52;;;;;;;2.63;2.03;;;;;;;;;;10361759;28;20129;-84
2023/01/24 00:33:58;;;;;;;2.78;1.80;;;;;;;;;;10362388;28;20041;-83
2023/01/24 00:39:03;;;;;;;2.08;1.67;;;;;;;;;;10367017;28;20057;-84
2023/01/24 00:44:06;;;;;;;2.65;1.95;;;;;;;;;;10367234;28;20080;-83
2023/01/24 00:49:10;;;;;;;3.90;2.45;;;;;;;;;;10374373;28;20048;-82
2023/01/24 00:54:15;;;;;;;2.05;1.70;;;;;;;;;;10360869;28;20081;-84
2023/01/24 00:59:19;;;;;;;3.08;2.22;;;;;;;;;;10361483;28;20264;-84
2023/01/24 01:04:23;;;;;;;3.30;2.42;;;;;;;;;;10361181;28;20056;-84
2023/01/24 01:09:27;;;;;;;2.88;2.20;;;;;;;;;;10361340;28;20076;-83
2023/01/24 01:14:33;;;;;;;2.53;2.10;;;;;;;;;;10361669;28;20092;-84
2023/01/24 01:19:36;;;;;;;2.72;2.03;;;;;;;;;;10362799;28;20058;-82
2023/01/24 01:24:41;;;;;;;3.50;2.60;;;;;;;;;;10360705;28;20077;-82
2023/01/24 01:29:44;;;;;;;5.85;3.10;;;;;;;;;;10346420;28;20108;-82
2023/01/24 01:34:48;;;;;;;2.65;2.30;;;;;;;;;;10359469;28;20591;-84
2023/01/24 01:39:53;;;;;;;2.90;2.05;;;;;;;;;;10382974;28;20065;-87
2023/01/24 01:44:56;;;;;;;3.55;2.08;;;;;;;;;;10391909;28;20075;-85
2023/01/24 01:50:08;;;;;;;3.97;2.47;;;;;;;;;;10385015;28;20072;-87
2023/01/24 01:55:16;;;;;;;3.25;2.38;;;;;;;;;;10365567;28;20045;-87
2023/01/24 02:00:23;;;;;;;4.05;2.70;;;;;;;;;;10368307;28;20045;-82
2023/01/24 02:05:27;;;;;;;3.20;2.05;;;;;;;;;;10376267;28;20409;-81
2023/01/24 02:11:37;;;;;;;4.00;2.83;;;;;;;;;;10382721;28;20061;-84
2023/01/24 02:16:05;;;;;;;5.07;3.10;;;;;;;;;;10358473;28;20049;-82
2023/01/24 02:21:23;;;;;;;3.22;2.15;;;;;;;;;;10376144;28;20132;-83
2023/01/24 02:26:29;;;;;;;1.98;1.52;;;;;;;;;;10358919;28;20399;-82
2023/01/24 02:31:55;;;;;;;4.88;2.88;;;;;;;;;;10367972;28;20046;-84
2023/01/24 02:37:01;;;;;;;2.70;2.00;;;;;;;;;;10361607;28;20546;-83
2023/01/24 02:42:10;;;;;;;4.25;2.50;;;;;;;;;;10359816;28;20611;-84
2023/01/24 02:47:14;;;;;;;2.70;2.20;;;;;;;;;;10368754;28;20046;-84
2023/01/24 03:03:02;;;;;;;3.72;2.90;;;;;;;;;;10364139;28;20049;-83
2023/01/24 03:08:08;;;;;;;2.92;2.33;;;;;;;;;;10366269;28;20046;-83
2023/01/24 03:34:49;;;;;;;3.55;2.63;;;;;;;;;;10366420;28;20289;-84
2023/01/24 03:39:59;;;;;;;3.90;2.90;;;;;;;;;;10370358;28;20042;-82
2023/01/24 03:45:17;;;;;;;3.72;2.60;;;;;;;;;;10377572;28;20050;-83
2023/01/24 03:56:03;;;;;;;4.75;3.35;;;;;;;;;;10364512;28;20386;-83
2023/01/24 04:01:16;;;;;;;3.25;2.30;;;;;;;;;;10363213;28;20425;-83
2023/01/24 04:06:40;;;;;;;4.67;3.03;;;;;;;;;;10380376;28;20053;-83
2023/01/24 04:11:47;;;;;;;3.30;2.42;;;;;;;;;;10363826;28;20050;-83
2023/01/24 04:16:59;;;;;;;3.90;3.10;;;;;;;;;;10371294;28;20050;-84
2023/01/24 04:22:10;;;;;;;3.42;2.53;;;;;;;;;;10362759;28;20045;-83
2023/01/24 04:27:18;;;;;;;4.05;2.95;;;;;;;;;;10368309;28;20050;-84
2023/01/24 04:32:40;;;;;;;7.63;4.22;;;;;;;;;;10387996;28;20057;-82
2023/01/24 04:37:52;;;;;;;8.32;5.15;;;;;;;;;;10356058;28;20057;-84
2023/01/24 04:43:11;;;;;;;5.47;3.65;;;;;;;;;;10360395;28;20054;-83
2023/01/24 04:48:20;;;;;;;5.40;3.80;;;;;;;;;;10362089;28;20141;-83
2023/01/24 04:53:23;;;;;;;4.32;2.80;;;;;;;;;;10358793;28;20045;-82
2023/01/24 04:58:29;;;;;;;5.20;3.17;;;;;;;;;;10371879;28;20045;-83
2023/01/24 05:03:35;;;;;;;5.22;3.60;;;;;;;;;;10365920;28;20096;-83
2023/01/24 05:08:40;;;;;;;5.00;3.57;;;;;;;;;;10371538;28;20099;-83
2023/01/24 05:13:44;;;;;;;4.82;2.90;;;;;;;;;;10349101;28;20374;-84
2023/01/24 05:18:49;;;;;;;6.38;4.13;;;;;;;;;;10372022;28;20046;-83
2023/01/24 05:23:54;;;;;;;3.45;2.72;;;;;;;;;;10365419;28;20057;-83
2023/01/24 05:29:00;;;;;;;4.90;3.35;;;;;;;;;;10359883;28;20462;-82
2023/01/24 05:34:07;;;;;;;8.90;4.90;;;;;;;;;;10373072;28;20081;-82
2023/01/24 05:39:10;;;;;;;5.40;3.53;;;;;;;;;;10376045;28;20100;-83
2023/01/24 05:44:15;;;;;;;5.28;3.38;;;;;;;;;;10369605;28;20045;-82
2023/01/24 05:49:20;;;;;;;5.57;3.92;;;;;;;;;;10364028;28;20050;-82
2023/01/24 05:54:25;;;;;;;4.30;3.08;;;;;;;;;;10369175;28;20041;-83
2023/01/24 05:59:36;;;;;;;5.53;3.78;;;;;;;;;;10386118;28;20045;-86
2023/01/24 06:04:42;;;;;;;5.53;3.60;;;;;;;;;;10393243;28;20095;-86
2023/01/24 06:09:47;;;;;;;5.53;3.63;;;;;;;;;;10392157;28;20049;-86
2023/01/24 06:14:51;;;;;;;6.05;4.00;;;;;;;;;;10391671;28;20109;-86
2023/01/24 06:19:59;;;;;;;6.15;3.50;;;;;;;;;;10382646;28;20108;-86
2023/01/24 06:25:12;;;;;;;6.70;3.65;;;;;;;;;;10371758;28;20525;-85
2023/01/24 06:30:23;;;;;;;5.00;3.35;;;;;;;;;;10383764;28;20420;-87
2023/01/24 06:35:43;;;;;;;4.95;3.40;;;;;;;;;;10375886;28;20050;-87
2023/01/24 06:40:47;;;;;;;5.88;3.55;;;;;;;;;;10381877;28;20432;-86
2023/01/24 06:45:51;;;;;;;5.70;3.40;;;;;;;;;;10373703;28;20546;-86
2023/01/24 06:50:55;;;;;;;6.07;3.42;;;;;;;;;;10384825;28;20046;-83
2023/01/24 06:55:59;;;;;;;7.13;4.22;;;;;;;;;;10372101;28;20050;-88
2023/01/24 07:01:02;;;;;;;6.55;3.67;;;;;;;;;;10356079;28;20256;-89
2023/01/24 07:06:07;;;;;;;5.68;3.22;;;;;;;;;;10357428;28;20150;-88
2023/01/24 07:11:11;;;;;;;6.57;3.90;;;;;;;;;;10361306;28;20057;-88
2023/01/24 07:16:14;;;;;;;5.35;3.63;;;;;;;;;;10363389;28;20172;-89
2023/01/24 07:21:20;;;;;;;5.95;3.88;;;;;;;;;;10362443;28;20057;-89
2023/01/24 07:26:24;;;;;;;8.60;4.57;;;;;;;;;;10360063;28;20136;-87
2023/01/24 07:31:27;;;;;;;6.20;4.15;;;;;;;;;;10351656;28;20042;-89
2023/01/24 07:36:32;;;;;;;8.40;5.20;;;;;;;;;;10353229;28;20065;-87
2023/01/24 07:41:50;;;;;;;6.75;4.78;;;;;;;;;;10350800;28;20046;-89
2023/01/24 07:46:54;;;;;;;9.73;5.85;;;;;;;;;;10357504;28;20080;-89
2023/01/24 07:52:04;;;;;;;6.70;4.43;;;;;;;;;;10352947;28;20076;-88
2023/01/24 07:57:08;;;;;;;8.60;4.75;;;;;;;;;;10355393;28;20050;-89
2023/01/24 08:02:12;;;;;;;7.18;4.25;;;;;;;;;;10342589;28;20061;-87
2023/01/24 08:07:20;;;;;;;8.30;4.00;;;;;;;;;;10350815;28;20052;-87
2023/01/24 08:12:25;;;;;;;6.30;3.83;;;;;;;;;;10349793;28;20077;-89
2023/01/24 08:17:28;;;;;;;6.57;4.20;;;;;;;;;;10350046;28;20133;-88
2023/01/24 08:22:33;;;;;;;5.13;3.42;;;;;;;;;;10356953;28;20053;-88
2023/01/24 08:27:41;;;;;;;6.10;3.57;;;;;;;;;;10366733;28;20060;-88
2023/01/24 08:32:45;;;;;;;5.13;3.65;;;;;;;;;;10347868;28;20667;-87
2023/01/24 08:37:50;;;;;;;7.70;4.63;;;;;;;;;;10368822;28;20056;-86
2023/01/24 08:42:53;;;;;;;6.20;4.13;;;;;;;;;;10349622;28;20049;-88
2023/01/24 08:48:00;;;;;;;7.10;3.85;;;;;;;;;;10342505;28;20054;-88
2023/01/24 08:53:05;;;;;;;5.60;3.40;;;;;;;;;;10361557;28;20046;-86
2023/01/24 08:58:08;;;;;;;6.15;3.75;;;;;;;;;;10363071;28;20132;-87
2023/01/24 09:03:13;;;;;;;5.85;4.00;;;;;;;;;;10327815;28;20565;-86
2023/01/24 09:08:18;;;;;;;9.75;5.97;;;;;;;;;;10308509;28;20609;-88
2023/01/24 09:13:25;;;;;;;7.18;4.28;;;;;;;;;;10316305;28;20141;-88
2023/01/24 09:18:29;;;;;;;7.20;4.32;;;;;;;;;;10322847;28;20048;-89
2023/01/24 09:23:34;;;;;;;5.80;4.05;;;;;;;;;;10299584;28;20346;-88
2023/01/24 09:28:37;;;;;;;7.03;3.92;;;;;;;;;;10317926;28;20057;-87
2023/01/24 09:33:42;;;;;;;4.57;2.90;;;;;;;;;;10330124;28;20119;-87
2023/01/24 09:39:01;;;;;;;5.35;3.55;;;;;;;;;;10348236;28;21563;-87
2023/01/24 09:44:16;;;;;;;4.93;3.47;;;;;;;;;;10321917;28;20042;-88
2023/01/24 09:49:31;;;;;;;6.18;3.97;;;;;;;;;;10338497;28;20071;-87
2023/01/24 09:54:51;;;;;;;7.15;4.30;;;;;;;;;;10329685;28;20050;-86
2023/01/24 09:59:59;;;;;;;6.70;4.38;;;;;;;;;;10308617;28;20045;-86
2023/01/24 10:05:14;;;;;;;6.50;4.32;;;;;;;;;;10343240;28;20034;-88
2023/01/24 10:10:44;;;;;;;8.93;5.50;;;;;;;;;;10341331;28;20080;-88
2023/01/24 10:15:57;;;;;;;9.13;5.32;;;;;;;;;;10346784;28;20062;-88
2023/01/24 10:21:25;;;;;;;6.53;4.65;;;;;;;;;;10342737;28;20469;-87
2023/01/24 10:26:38;;;;;;;9.57;6.03;;;;;;;;;;10340450;28;20053;-86
2023/01/24 10:31:44;;;;;;;9.00;5.20;;;;;;;;;;10332921;28;20065;-88
2023/01/24 10:36:52;;;;;;;10.23;5.80;;;;;;;;;;10325064;28;20047;-87
2023/01/24 10:41:56;;;;;;;8.98;5.65;;;;;;;;;;10319111;28;20429;-88
2023/01/24 10:47:39;;;;;;;7.80;4.97;;;;;;;;;;10332402;28;20526;-87
2023/01/24 10:52:43;;;;;;;7.18;4.75;;;;;;;;;;10325828;28;20140;-88
2023/01/24 10:57:52;;;;;;;7.32;4.18;;;;;;;;;;10339813;28;20046;-87
2023/01/24 11:02:57;;;;;;;7.15;4.68;;;;;;;;;;10313305;28;20414;-87
2023/01/24 11:08:17;;;;;;;8.98;5.05;;;;;;;;;;10316068;28;20232;-86
2023/01/24 11:13:31;;;;;;;7.20;4.65;;;;;;;;;;10331426;28;20115;-87
2023/01/24 11:18:36;;;;;;;8.10;4.93;;;;;;;;;;10314379;28;20058;-87
2023/01/24 11:23:44;;;;;;;9.65;6.00;;;;;;;;;;10310821;28;20648;-88
2023/01/24 11:28:57;;;;;;;7.70;5.05;;;;;;;;;;10321328;28;20100;-88
2023/01/24 11:34:23;;;;;;;7.90;5.05;;;;;;;;;;10331883;28;20156;-87
2023/01/24 11:39:47;;;;;;;8.20;4.93;;;;;;;;;;10351297;28;20483;-86
2023/01/24 11:45:21;;;;;;;7.40;4.38;;;;;;;;;;10365266;28;20616;-85
2023/01/24 11:50:45;;;;;;;7.45;4.88;;;;;;;;;;10377398;28;20133;-87
2023/01/24 11:55:57;;;;;;;8.55;5.18;;;;;;;;;;10370070;28;20104;-87
2023/01/24 12:01:09;;;;;;;8.13;5.00;;;;;;;;;;10359584;28;20133;-87
2023/01/24 12:06:26;;;;;;;7.68;4.93;;;;;;;;;;10357014;28;20125;-86
2023/01/24 12:11:48;;;;;;;8.55;4.95;;;;;;;;;;10341151;28;20401;-85
2023/01/24 12:17:03;;;;;;;9.55;5.82;;;;;;;;;;10365495;28;20038;-85
2023/01/24 12:22:35;;;;;;;7.97;4.75;;;;;;;;;;10388470;28;20728;-85
2023/01/24 12:27:40;;;;;;;5.70;3.58;;;;;;;;;;10347704;28;20065;-85
2023/01/24 12:32:50;;;;;;;6.22;4.13;;;;;;;;;;10349215;28;20054;-86
2023/01/24 12:38:01;;;;;;;7.18;4.22;;;;;;;;;;10332742;28;20047;-86
2023/01/24 12:43:20;;;;;;;7.30;4.30;;;;;;;;;;10344021;28;20565;-85
2023/01/24 12:48:35;;;;;;;6.65;4.10;;;;;;;;;;10395489;28;20504;-85
2023/01/24 12:53:58;;;;;;;3.83;2.92;;;;;;;;;;10385363;28;20046;-86
2023/01/24 12:59:02;;;;;;;8.65;4.70;;;;;;;;;;10338455;28;20491;-86
2023/01/24 13:04:21;;;;;;;5.95;3.85;;;;;;;;;;10332392;28;20154;-89
2023/01/24 13:09:30;;;;;;;5.20;3.28;;;;;;;;;;10327773;28;20388;-86
2023/01/24 13:14:38;;;;;;;6.05;4.15;;;;;;;;;;10330661;28;20054;-89
2023/01/24 13:19:55;;;;;;;6.00;4.07;;;;;;;;;;10316160;28;20556;-87
2023/01/24 13:25:23;;;;;;;6.03;4.10;;;;;;;;;;10326816;28;20047;-89
2023/01/24 13:30:35;;;;;;;4.55;3.17;;;;;;;;;;10292332;28;20050;-88
2023/01/24 13:35:48;;;;;;;5.35;3.33;;;;;;;;;;10286288;28;20053;-87
2023/01/24 13:41:00;;;;;;;4.40;2.90;;;;;;;;;;10280273;28;20058;-87
2023/01/24 13:46:04;;;;;;;4.53;3.33;;;;;;;;;;10315300;28;20259;-89
2023/01/24 13:51:34;;;;;;;6.18;4.30;;;;;;;;;;10358588;28;20067;-88
2023/01/24 13:57:16;;;;;;;5.63;3.78;;;;;;;;;;10315387;28;20042;-88
2023/01/24 14:02:30;;;;;;;4.32;3.08;;;;;;;;;;10345076;28;20056;-86
2023/01/24 14:07:41;;;;;;;4.88;3.65;;;;;;;;;;10351676;28;20053;-88
2023/01/24 14:12:54;;;;;;;6.43;4.07;;;;;;;;;;10351398;28;20053;-87
2023/01/24 14:18:28;;;;;;;5.45;3.65;;;;;;;;;;10348145;28;20050;-89
2023/01/24 14:23:34;;;;;;;4.35;3.13;;;;;;;;;;10301394;28;20053;-86
2023/01/24 14:28:44;;;;;;;5.72;3.92;;;;;;;;;;10360033;28;20046;-85
2023/01/24 14:33:56;;;;;;;4.78;2.92;;;;;;;;;;10335835;28;20115;-85
2023/01/24 14:39:25;;;;;;;3.65;2.92;;;;;;;;;;10380611;28;20514;-85
2023/01/24 14:44:31;;;;;;;5.43;3.70;;;;;;;;;;10340899;28;20053;-85
2023/01/24 14:49:37;;;;;;;6.88;4.75;;;;;;;;;;10380942;28;20046;-87
2023/01/24 14:55:03;;;;;;;4.35;3.42;;;;;;;;;;10369145;28;20053;-85
2023/01/24 15:00:18;;;;;;;5.57;3.75;;;;;;;;;;10329977;28;20046;-89
2023/01/24 15:05:28;;;;;;;6.10;3.60;;;;;;;;;;10318886;28;20050;-87
2023/01/24 15:10:36;;;;;;;4.93;3.50;;;;;;;;;;10323830;28;20057;-85
2023/01/24 15:15:46;;;;;;;5.00;3.35;;;;;;;;;;10319807;28;20124;-84
2023/01/24 15:20:50;;;;;;;5.85;3.50;;;;;;;;;;10330325;28;20097;-84
2023/01/24 15:26:42;;;;;;;4.80;3.40;;;;;;;;;;10324258;28;20100;-85
2023/01/24 15:31:51;;;;;;;4.63;2.80;;;;;;;;;;10327319;28;20304;-84
2023/01/24 15:36:59;;;;;;;6.82;4.30;;;;;;;;;;10323935;28;20100;-84
2023/01/24 15:47:47;;;;;;;5.50;3.60;;;;;;;;;;10330199;28;20038;-84
2023/01/24 15:53:11;;;;;;;4.82;3.60;;;;;;;;;;10304419;28;20077;-84
2023/01/24 15:58:16;;;;;;;5.32;3.58;;;;;;;;;;10376914;28;20556;-84
2023/01/24 16:03:20;;;;;;;8.50;4.55;;;;;;;;;;10360967;28;20057;-84
2023/01/24 16:08:26;;;;;;;5.82;3.35;;;;;;;;;;10350585;28;20050;-84
2023/01/24 16:13:32;;;;;;;4.20;2.90;;;;;;;;;;10360286;28;20064;-84
2023/01/24 16:18:35;;;;;;;;;;;;;;;;;;10348901;28;20054;-83
2023/01/24 16:23:39;;;;;;;4.50;3.30;;;;;;;;;;10368089;28;19997;-83
2023/01/24 16:28:46;;;;;;;3.28;2.80;;;;;;;;;;10374844;28;20063;-83
2023/01/24 16:33:50;;;;;;;5.82;4.00;;;;;;;;;;10367404;28;20057;-84
2023/01/24 16:38:54;;;;;;;4.95;3.47;;;;;;;;;;10390463;28;20041;-83
2023/01/24 16:43:59;;;;;;;5.18;3.33;;;;;;;;;;10366287;28;20775;-84
2023/01/24 16:49:02;;;;;;;5.65;4.05;;;;;;;;;;10361203;28;20141;-88
2023/01/24 16:54:07;;;;;;;6.30;4.10;;;;;;;;;;10381888;28;20505;-87
2023/01/24 16:59:16;;;;;;;6.20;4.47;;;;;;;;;;10365700;28;20111;-86
2023/01/24 17:04:19;;;;;;;4.30;3.40;;;;;;;;;;10372199;28;20045;-82
2023/01/24 17:09:22;;;;;;;6.13;4.28;;;;;;;;;;10367272;28;20045;-82
2023/01/24 17:14:29;;;;;;;5.65;4.15;;;;;;;;;;10369591;28;20045;-82
2023/01/24 17:19:34;;;;;;;5.28;3.45;;;;;;;;;;10359423;28;20052;-83
2023/01/24 17:24:37;;;;;;;5.40;3.63;;;;;;;;;;10394368;22;20049;-85
2023/01/24 17:29:45;;;;;;;7.50;4.25;;;;;;;;;;10375535;28;20601;-85
2023/01/24 17:34:50;;;;;;;5.28;3.67;;;;;;;;;;10363636;28;20053;-85
2023/01/24 17:39:54;;;;;;;;;;;;;;;;;;10376862;28;20050;-85
2023/01/24 17:44:59;;;;;;;3.88;3.15;;;;;;;;;;10363753;28;19920;-85
2023/01/24 17:50:11;;;;;;;7.30;4.70;;;;;;;;;;10382812;28;20064;-85
2023/01/24 17:55:16;;;;;;;5.70;3.78;;;;;;;;;;10359781;28;20053;-85
2023/01/24 18:00:22;;;;;;;7.07;4.33;;;;;;;;;;10359714;28;20053;-85
2023/01/24 18:05:27;;;;;;;5.57;3.90;;;;;;;;;;10373342;28;20411;-85
2023/01/24 18:10:36;;;;;;;6.40;4.13;;;;;;;;;;10382258;28;20065;-83
2023/01/24 18:15:44;;;;;;;5.80;3.72;;;;;;;;;;10357107;28;20049;-84
2023/01/24 18:20:50;;;;;;;6.90;4.57;;;;;;;;;;10372274;28;20076;-85
2023/01/24 18:25:53;;;;;;;5.78;3.85;;;;;;;;;;10343442;28;20049;-85
2023/01/24 18:30:59;;;;;;;5.00;3.20;;;;;;;;;;10349689;28;20064;-82
2023/01/24 18:36:07;;;;;;;5.15;3.53;;;;;;;;;;10358856;28;20058;-83
2023/01/24 18:41:12;;;;;;;5.43;3.08;;;;;;;;;;10360841;28;20041;-84
2023/01/24 18:46:17;;;;;;;4.70;3.00;;;;;;;;;;10375026;28;20095;-84
2023/01/24 18:51:21;;;;;;;6.32;4.05;;;;;;;;;;10367773;28;20046;-84
2023/01/24 18:56:25;;;;;;;8.05;5.18;;;;;;;;;;10348465;28;20046;-83
2023/01/24 19:01:31;;;;;;;5.47;3.75;;;;;;;;;;10361143;28;20549;-85
2023/01/24 19:06:36;;;;;;;4.28;3.25;;;;;;;;;;10369908;28;20057;-84
2023/01/24 19:11:41;;;;;;;5.47;3.50;;;;;;;;;;10338304;28;20054;-83
2023/01/24 19:16:45;;;;;;;4.55;3.42;;;;;;;;;;10374102;28;20612;-84
2023/01/24 19:21:50;;;;;;;4.97;3.28;;;;;;;;;;10356979;28;20049;-85
2023/01/24 19:26:54;;;;;;;4.68;3.10;;;;;;;;;;10382696;28;20807;-84
2023/01/24 19:31:59;;;;;;;4.13;3.03;;;;;;;;;;10381431;28;20145;-84
2023/01/24 19:37:05;;;;;;;3.63;2.72;;;;;;;;;;10383444;28;20061;-84
2023/01/24 19:42:08;;;;;;;4.43;2.95;;;;;;;;;;10365820;28;20057;-84
2023/01/24 19:47:13;;;;;;;6.38;3.78;;;;;;;;;;10368919;28;20042;-84
2023/01/24 19:52:16;;;;;;;5.90;3.90;;;;;;;;;;10350383;28;20062;-84
2023/01/24 19:57:19;;;;;;;4.90;3.55;;;;;;;;;;10363005;28;20049;-83
2023/01/24 20:02:24;;;;;;;4.57;3.55;;;;;;;;;;10362027;28;20684;-84
2023/01/24 20:07:27;;;;;;;4.45;3.50;;;;;;;;;;10363264;28;20045;-83
2023/01/24 20:12:31;;;;;;;4.60;3.22;;;;;;;;;;10344166;28;20382;-84
2023/01/24 20:17:35;;;;;;;5.30;3.63;;;;;;;;;;10375176;28;20087;-83
2023/01/24 20:22:39;;;;;;;5.53;3.40;;;;;;;;;;10382996;28;20140;-83
2023/01/24 20:27:42;;;;;;;6.40;3.63;;;;;;;;;;10371915;28;20045;-85
2023/01/24 20:32:47;;;;;;;4.53;3.45;;;;;;;;;;10373904;28;20058;-83
2023/01/24 20:37:51;;;;;;;4.88;3.25;;;;;;;;;;10355003;28;20107;-83
2023/01/24 20:42:54;;;;;;;4.82;3.30;;;;;;;;;;10367938;28;20046;-83
2023/01/24 20:47:59;;;;;;;5.07;3.70;;;;;;;;;;10353428;28;20054;-83
2023/01/24 20:53:03;;;;;;;4.07;3.15;;;;;;;;;;10351009;28;20071;-83
2023/01/24 20:58:06;;;;;;;3.17;2.45;;;;;;;;;;10350985;28;20120;-83
2023/01/24 21:03:11;;;;;;;2.63;2.13;;;;;;;;;;10379620;28;20050;-83
2023/01/24 21:08:14;;;;;;;3.50;2.67;;;;;;;;;;10378430;28;20050;-84
2023/01/24 21:13:18;;;;;;;3.97;2.88;;;;;;;;;;10364980;28;20038;-84
2023/01/24 21:18:24;;;;;;;3.95;2.70;;;;;;;;;;10370156;28;20054;-83
2023/01/24 21:23:28;;;;;;;4.03;3.00;;;;;;;;;;10387683;28;20128;-83
2023/01/24 21:28:31;;;;;;;3.90;2.90;;;;;;;;;;10369266;28;20408;-83
2023/01/24 21:33:36;;;;;;;3.83;2.22;;;;;;;;;;10396071;28;20055;-83
2023/01/24 21:38:40;;;;;;;3.22;2.13;;;;;;;;;;10360030;28;20065;-83
2023/01/24 21:43:44;;;;;;;4.32;3.05;;;;;;;;;;10368832;28;20058;-83
2023/01/24 21:49:08;;;;;;;5.65;3.35;;;;;;;;;;10346502;28;20144;-83
2023/01/24 21:54:15;;;;;;;4.30;2.97;;;;;;;;;;10384319;28;20071;-82
2023/01/24 21:59:19;;;;;;;4.38;3.25;;;;;;;;;;10368034;28;20475;-82
2023/01/24 22:04:25;;;;;;;3.63;2.58;;;;;;;;;;10375420;28;20144;-83
2023/01/24 22:09:28;;;;;;;4.35;3.15;;;;;;;;;;10361534;28;20460;-82
2023/01/24 22:14:33;;;;;;;3.00;2.10;;;;;;;;;;10380433;28;20050;-83
2023/01/24 22:19:42;;;;;;;3.35;2.28;;;;;;;;;;10362056;28;20069;-83
2023/01/24 22:24:57;;;;;;;6.20;3.17;;;;;;;;;;10346393;28;20045;-83
2023/01/24 22:30:01;;;;;;;4.43;3.40;;;;;;;;;;10371033;28;20715;-83
2023/01/24 22:35:12;;;;;;;5.05;3.40;;;;;;;;;;10358076;28;20103;-82
2023/01/24 22:40:17;;;;;;;3.70;2.67;;;;;;;;;;10367139;28;20042;-82
2023/01/24 22:45:20;;;;;;;3.92;2.42;;;;;;;;;;10397913;28;20106;-83
2023/01/24 22:50:25;;;;;;;4.18;2.65;;;;;;;;;;10409163;28;20423;-83
2023/01/24 22:55:29;;;;;;;4.40;2.80;;;;;;;;;;10378849;28;20069;-84
2023/01/24 23:00:32;;;;;;;3.65;2.55;;;;;;;;;;10335625;28;20050;-83
2023/01/24 23:05:37;;;;;;;3.72;2.70;;;;;;;;;;10372638;28;20042;-83
2023/01/24 23:10:41;;;;;;;4.63;2.67;;;;;;;;;;10361012;28;20460;-83
2023/01/24 23:26:28;;;;;;;5.38;3.42;;;;;;;;;;10349587;28;20392;-83
2023/01/24 23:31:32;;;;;;;4.57;3.42;;;;;;;;;;10337377;28;20055;-83
2023/01/24 23:36:36;;;;;;;4.95;3.60;;;;;;;;;;10338010;28;20105;-83
2023/01/24 23:41:40;;;;;;;5.60;4.15;;;;;;;;;;10334216;28;20101;-83
2023/01/24 23:46:43;;;;;;;4.93;3.67;;;;;;;;;;10394204;28;20062;-83
2023/01/24 23:51:48;;;;;;;4.50;3.55;;;;;;;;;;10362004;28;20053;-83
2023/01/24 23:56:51;;;;;;;4.22;3.20;;;;;;;;;;10338207;28;20506;-84
